UATE Airport Information

Runway Information
Runway 12 Length 8700 ft width 147 ft
Elevation 69 ft Threshold 0 ft Heading 123
Runway 30 Length 8700 ft Width 147 ft
Elevation 52 ft Threshold 0 ft Heading 303
Runway 12L Length 9630 ft width 150 ft
Elevation 0 ft Threshold 0 ft Heading 123
Runway 30R Length 9630 ft Width 150 ft
Elevation 0 ft Threshold 0 ft Heading 303
Airport Frequencies
Type A/G Name RDO Frequency 895.1 MHZ
Type APP Name APP Frequency 124.2 MHZ
Type TWR Name TWR Frequency 120.7 MHZ
Airport Navaids
Type VOR-DME Name Aktau Frequency 113300 KHZ
Type NDB Name Aktau Frequency 670 KHZ
Type NDB Name Aktau Frequency 670 KHZ
Airport Weather Information & NOTAM
ADDS - METARS form results

(1814 UTC 18 March 2019)
Data provider http://aviationweather.gov/metar/data/
 
METAR text: UATE 181800Z 34006MPS 9999 BKN020 04/01 Q1021 R30/0///70 NOSIG RMK QFE764/1019
Conditions at: UATE (AKTAU KAZAKHSTAN, KZ) observed 1800 UTC 18 March 2019
Temperature: 4.0°C (39°F)
Dewpoint: 1.0°C (34°F) [RH = 81%]
Pressure (altimeter): 30.15 inches Hg (1021.0 mb)
Winds: from the NNW (340 degrees) at 14 MPH (12 knots; 6.2 m/s)
Visibility: 6 or more miles (10+ km)
Ceiling: 2000 feet AGL
Clouds: broken clouds at 2000 feet AGL
Weather: no significant weather observed at this time

METAR text: UATE 181730Z 36006MPS 9999 BKN020 04/01 Q1021 R30/0///70 NOSIG RMK QFE764/1019
Conditions at: UATE (AKTAU KAZAKHSTAN, KZ) observed 1730 UTC 18 March 2019
Temperature: 4.0°C (39°F)
Dewpoint: 1.0°C (34°F) [RH = 81%]
Pressure (altimeter): 30.15 inches Hg (1021.0 mb)
Winds: from the N (360 degrees) at 14 MPH (12 knots; 6.2 m/s)
Visibility: 6 or more miles (10+ km)
Ceiling: 2000 feet AGL
Clouds: broken clouds at 2000 feet AGL
Weather: no significant weather observed at this time

Forecast for: UATE (AKTAU KAZAKHSTAN, KZ)
Text: TAF UATE 181702Z 1818/1918 01007G13MPS 9999 BKN010CB TX06/1910Z TN02/1902Z
Forecast period: 1800 UTC 18 March 2019 to 1800 UTC 19 March 2019
Forecast type: FROM: standard forecast or significant change
Winds: from the N (10 degrees) at 16 MPH (14 knots; 7.2 m/s)
gusting to 29 MPH (25 knots; 12.9 m/s)
Visibility: 6 or more miles 10+ km)
Ceiling: 1000 feet AGL
Clouds: broken clouds at 1000 feet AGL
Weather: no significant weather forecast for this period